sensor_id;sensor_type;location;lat;lon;timestamp;temperature;humidity
46898;DHT22;32646;50.958;6.258;2023-07-29T00:00:48;17.40;99.90
46898;DHT22;32646;50.958;6.258;2023-07-29T00:03:14;17.40;99.90
46898;DHT22;32646;50.958;6.258;2023-07-29T00:05:41;17.40;99.90
46898;DHT22;32646;50.958;6.258;2023-07-29T00:08:08;17.50;99.90
46898;DHT22;32646;50.958;6.258;2023-07-29T00:10:38;17.40;99.90
46898;DHT22;32646;50.958;6.258;2023-07-29T00:13:05;17.50;99.90
46898;DHT22;32646;50.958;6.258;2023-07-29T00:15:32;17.40;99.90
46898;DHT22;32646;50.958;6.258;2023-07-29T00:17:59;17.50;99.90
46898;DHT22;32646;50.958;6.258;2023-07-29T00:20:25;17.50;99.90
46898;DHT22;32646;50.958;6.258;2023-07-29T00:22:52;17.50;99.90
46898;DHT22;32646;50.958;6.258;2023-07-29T00:25:19;17.50;99.90
46898;DHT22;32646;50.958;6.258;2023-07-29T00:27:45;17.60;99.90
46898;DHT22;32646;50.958;6.258;2023-07-29T00:30:12;17.60;99.90
46898;DHT22;32646;50.958;6.258;2023-07-29T00:32:38;17.70;99.90
46898;DHT22;32646;50.958;6.258;2023-07-29T00:35:06;17.70;99.90
46898;DHT22;32646;50.958;6.258;2023-07-29T00:37:32;17.70;99.90
46898;DHT22;32646;50.958;6.258;2023-07-29T00:39:59;17.70;99.90
46898;DHT22;32646;50.958;6.258;2023-07-29T00:42:25;17.70;99.90
46898;DHT22;32646;50.958;6.258;2023-07-29T00:44:52;17.70;99.90
46898;DHT22;32646;50.958;6.258;2023-07-29T00:47:19;17.60;99.90
46898;DHT22;32646;50.958;6.258;2023-07-29T00:49:46;17.70;99.90
46898;DHT22;32646;50.958;6.258;2023-07-29T00:52:13;17.70;99.90
46898;DHT22;32646;50.958;6.258;2023-07-29T00:54:40;17.70;99.90
46898;DHT22;32646;50.958;6.258;2023-07-29T00:57:08;17.70;99.90
46898;DHT22;32646;50.958;6.258;2023-07-29T00:59:36;17.70;99.90
46898;DHT22;32646;50.958;6.258;2023-07-29T01:02:03;17.80;99.90
46898;DHT22;32646;50.958;6.258;2023-07-29T01:04:30;17.80;99.90
46898;DHT22;32646;50.958;6.258;2023-07-29T01:10:03;17.80;99.90
46898;DHT22;32646;50.958;6.258;2023-07-29T01:15:37;17.90;99.90
46898;DHT22;32646;50.958;6.258;2023-07-29T01:18:12;17.90;99.90
46898;DHT22;32646;50.958;6.258;2023-07-29T01:20:43;17.90;99.90
46898;DHT22;32646;50.958;6.258;2023-07-29T01:23:11;17.90;99.90
46898;DHT22;32646;50.958;6.258;2023-07-29T01:25:38;18.00;99.90
46898;DHT22;32646;50.958;6.258;2023-07-29T01:28:04;17.90;99.90
46898;DHT22;32646;50.958;6.258;2023-07-29T01:30:39;17.90;99.90
46898;DHT22;32646;50.958;6.258;2023-07-29T01:33:21;17.90;99.90
46898;DHT22;32646;50.958;6.258;2023-07-29T01:35:56;18.00;99.90
46898;DHT22;32646;50.958;6.258;2023-07-29T01:38:35;18.00;99.90
46898;DHT22;32646;50.958;6.258;2023-07-29T01:41:03;17.90;99.90
46898;DHT22;32646;50.958;6.258;2023-07-29T01:43:31;17.90;99.90
46898;DHT22;32646;50.958;6.258;2023-07-29T01:45:58;17.90;99.90
46898;DHT22;32646;50.958;6.258;2023-07-29T01:48:24;17.90;99.90
46898;DHT22;32646;50.958;6.258;2023-07-29T01:50:51;17.90;99.90
46898;DHT22;32646;50.958;6.258;2023-07-29T01:53:17;18.00;99.90
46898;DHT22;32646;50.958;6.258;2023-07-29T01:55:44;18.10;99.90
46898;DHT22;32646;50.958;6.258;2023-07-29T01:58:11;18.20;99.90
46898;DHT22;32646;50.958;6.258;2023-07-29T02:00:38;18.20;99.90
46898;DHT22;32646;50.958;6.258;2023-07-29T02:03:04;18.20;99.90
46898;DHT22;32646;50.958;6.258;2023-07-29T02:05:31;18.30;99.90
46898;DHT22;32646;50.958;6.258;2023-07-29T02:07:58;18.30;99.90
46898;DHT22;32646;50.958;6.258;2023-07-29T02:10:24;18.30;99.90
46898;DHT22;32646;50.958;6.258;2023-07-29T02:12:51;18.30;99.90
46898;DHT22;32646;50.958;6.258;2023-07-29T02:15:17;18.30;99.90
46898;DHT22;32646;50.958;6.258;2023-07-29T02:17:44;18.30;99.90
46898;DHT22;32646;50.958;6.258;2023-07-29T02:20:11;18.30;99.90
46898;DHT22;32646;50.958;6.258;2023-07-29T02:22:37;18.40;99.90
46898;DHT22;32646;50.958;6.258;2023-07-29T02:25:04;18.40;99.90
46898;DHT22;32646;50.958;6.258;2023-07-29T02:27:31;18.40;99.90
46898;DHT22;32646;50.958;6.258;2023-07-29T02:29:58;18.40;99.90
46898;DHT22;32646;50.958;6.258;2023-07-29T02:32:25;18.40;99.90
46898;DHT22;32646;50.958;6.258;2023-07-29T02:34:52;18.40;99.90
46898;DHT22;32646;50.958;6.258;2023-07-29T02:37:18;18.40;99.90
46898;DHT22;32646;50.958;6.258;2023-07-29T02:39:45;18.40;99.90
46898;DHT22;32646;50.958;6.258;2023-07-29T02:42:12;18.40;99.90
46898;DHT22;32646;50.958;6.258;2023-07-29T02:44:40;18.40;99.90
46898;DHT22;32646;50.958;6.258;2023-07-29T02:47:06;18.40;99.90
46898;DHT22;32646;50.958;6.258;2023-07-29T02:49:33;18.40;99.90
46898;DHT22;32646;50.958;6.258;2023-07-29T02:51:59;18.40;99.90
46898;DHT22;32646;50.958;6.258;2023-07-29T02:54:26;18.40;99.90
46898;DHT22;32646;50.958;6.258;2023-07-29T02:56:53;18.40;99.90
46898;DHT22;32646;50.958;6.258;2023-07-29T02:59:20;18.30;99.90
46898;DHT22;32646;50.958;6.258;2023-07-29T03:01:46;18.30;99.90
46898;DHT22;32646;50.958;6.258;2023-07-29T03:04:13;18.30;99.90
46898;DHT22;32646;50.958;6.258;2023-07-29T03:06:40;18.30;99.90
46898;DHT22;32646;50.958;6.258;2023-07-29T03:09:06;18.30;99.90
46898;DHT22;32646;50.958;6.258;2023-07-29T03:11:33;18.20;99.90
46898;DHT22;32646;50.958;6.258;2023-07-29T03:14:00;18.20;99.90
46898;DHT22;32646;50.958;6.258;2023-07-29T03:16:27;18.20;99.90
46898;DHT22;32646;50.958;6.258;2023-07-29T03:18:54;18.10;99.90
46898;DHT22;32646;50.958;6.258;2023-07-29T03:21:20;18.10;99.90
46898;DHT22;32646;50.958;6.258;2023-07-29T03:23:47;17.90;99.90
46898;DHT22;32646;50.958;6.258;2023-07-29T03:26:13;17.90;99.90
46898;DHT22;32646;50.958;6.258;2023-07-29T03:28:42;17.90;99.90
46898;DHT22;32646;50.958;6.258;2023-07-29T03:31:09;17.90;99.90
46898;DHT22;32646;50.958;6.258;2023-07-29T03:33:36;17.80;99.90
46898;DHT22;32646;50.958;6.258;2023-07-29T03:36:03;17.80;99.90
46898;DHT22;32646;50.958;6.258;2023-07-29T03:38:30;17.70;99.90
46898;DHT22;32646;50.958;6.258;2023-07-29T03:40:57;17.70;99.90
46898;DHT22;32646;50.958;6.258;2023-07-29T03:43:24;17.70;99.90
46898;DHT22;32646;50.958;6.258;2023-07-29T03:45:50;17.70;99.90
46898;DHT22;32646;50.958;6.258;2023-07-29T03:48:17;17.70;99.90
46898;DHT22;32646;50.958;6.258;2023-07-29T03:50:44;17.70;99.90
46898;DHT22;32646;50.958;6.258;2023-07-29T03:53:10;17.80;99.90
46898;DHT22;32646;50.958;6.258;2023-07-29T03:55:37;17.80;99.90
46898;DHT22;32646;50.958;6.258;2023-07-29T03:58:03;17.70;99.90
46898;DHT22;32646;50.958;6.258;2023-07-29T04:00:30;17.70;99.90
46898;DHT22;32646;50.958;6.258;2023-07-29T04:02:57;17.60;99.90
46898;DHT22;32646;50.958;6.258;2023-07-29T04:05:24;17.60;99.90
46898;DHT22;32646;50.958;6.258;2023-07-29T04:07:50;17.60;99.90
46898;DHT22;32646;50.958;6.258;2023-07-29T04:10:17;17.50;99.90
46898;DHT22;32646;50.958;6.258;2023-07-29T04:12:44;17.50;99.90
46898;DHT22;32646;50.958;6.258;2023-07-29T04:15:10;17.40;99.90
46898;DHT22;32646;50.958;6.258;2023-07-29T04:17:37;17.40;99.90
46898;DHT22;32646;50.958;6.258;2023-07-29T04:20:04;17.30;99.90
46898;DHT22;32646;50.958;6.258;2023-07-29T04:22:31;17.30;99.90
46898;DHT22;32646;50.958;6.258;2023-07-29T04:24:57;17.30;99.90
46898;DHT22;32646;50.958;6.258;2023-07-29T04:27:24;17.20;99.90
46898;DHT22;32646;50.958;6.258;2023-07-29T04:29:50;17.20;99.90
46898;DHT22;32646;50.958;6.258;2023-07-29T04:32:17;17.20;99.90
46898;DHT22;32646;50.958;6.258;2023-07-29T04:34:44;17.20;99.90
46898;DHT22;32646;50.958;6.258;2023-07-29T04:37:12;17.10;99.90
46898;DHT22;32646;50.958;6.258;2023-07-29T04:39:45;17.00;99.90
46898;DHT22;32646;50.958;6.258;2023-07-29T04:42:12;17.10;99.90
46898;DHT22;32646;50.958;6.258;2023-07-29T04:44:39;17.10;99.90
46898;DHT22;32646;50.958;6.258;2023-07-29T04:47:05;17.00;99.90
46898;DHT22;32646;50.958;6.258;2023-07-29T04:49:32;17.10;99.90
46898;DHT22;32646;50.958;6.258;2023-07-29T04:51:59;17.00;99.90
46898;DHT22;32646;50.958;6.258;2023-07-29T04:54:26;17.10;99.90
46898;DHT22;32646;50.958;6.258;2023-07-29T04:56:52;17.00;99.90
46898;DHT22;32646;50.958;6.258;2023-07-29T04:59:19;17.00;99.90
46898;DHT22;32646;50.958;6.258;2023-07-29T05:01:46;17.00;99.90
46898;DHT22;32646;50.958;6.258;2023-07-29T05:04:13;17.00;99.90
46898;DHT22;32646;50.958;6.258;2023-07-29T05:06:40;17.00;99.90
46898;DHT22;32646;50.958;6.258;2023-07-29T05:09:16;17.00;99.90
46898;DHT22;32646;50.958;6.258;2023-07-29T05:11:46;16.90;99.90
46898;DHT22;32646;50.958;6.258;2023-07-29T05:14:28;16.90;99.90
46898;DHT22;32646;50.958;6.258;2023-07-29T05:16:57;16.90;99.90
46898;DHT22;32646;50.958;6.258;2023-07-29T05:19:23;16.90;99.90
46898;DHT22;32646;50.958;6.258;2023-07-29T05:21:50;16.90;99.90
46898;DHT22;32646;50.958;6.258;2023-07-29T05:24:17;16.90;99.90
46898;DHT22;32646;50.958;6.258;2023-07-29T05:26:43;16.90;99.90
46898;DHT22;32646;50.958;6.258;2023-07-29T05:29:10;16.90;99.90
46898;DHT22;32646;50.958;6.258;2023-07-29T05:31:36;16.80;99.90
46898;DHT22;32646;50.958;6.258;2023-07-29T05:34:03;16.90;99.90
46898;DHT22;32646;50.958;6.258;2023-07-29T05:36:30;16.90;99.90
46898;DHT22;32646;50.958;6.258;2023-07-29T05:38:57;16.90;99.90
46898;DHT22;32646;50.958;6.258;2023-07-29T05:41:23;16.90;99.90
46898;DHT22;32646;50.958;6.258;2023-07-29T05:43:50;16.90;99.90
46898;DHT22;32646;50.958;6.258;2023-07-29T05:46:17;16.90;99.90
46898;DHT22;32646;50.958;6.258;2023-07-29T05:48:44;16.90;99.90
46898;DHT22;32646;50.958;6.258;2023-07-29T05:51:11;16.90;99.90
46898;DHT22;32646;50.958;6.258;2023-07-29T05:53:38;16.90;99.90
46898;DHT22;32646;50.958;6.258;2023-07-29T05:56:05;16.90;99.90
46898;DHT22;32646;50.958;6.258;2023-07-29T05:58:31;16.90;99.90
46898;DHT22;32646;50.958;6.258;2023-07-29T06:00:58;17.00;99.90
46898;DHT22;32646;50.958;6.258;2023-07-29T06:03:25;17.00;99.90
46898;DHT22;32646;50.958;6.258;2023-07-29T06:05:53;17.10;99.90
46898;DHT22;32646;50.958;6.258;2023-07-29T06:08:20;17.20;99.90
46898;DHT22;32646;50.958;6.258;2023-07-29T06:10:47;17.30;99.90
46898;DHT22;32646;50.958;6.258;2023-07-29T06:13:14;17.30;99.90
46898;DHT22;32646;50.958;6.258;2023-07-29T06:15:41;17.40;99.90
46898;DHT22;32646;50.958;6.258;2023-07-29T06:18:07;17.40;99.90
46898;DHT22;32646;50.958;6.258;2023-07-29T06:20:34;17.50;99.90
46898;DHT22;32646;50.958;6.258;2023-07-29T06:23:01;17.50;99.90
46898;DHT22;32646;50.958;6.258;2023-07-29T06:25:28;17.40;99.90
46898;DHT22;32646;50.958;6.258;2023-07-29T06:27:54;17.50;99.90
46898;DHT22;32646;50.958;6.258;2023-07-29T06:30:21;17.50;99.90
46898;DHT22;32646;50.958;6.258;2023-07-29T06:32:48;17.50;99.90
46898;DHT22;32646;50.958;6.258;2023-07-29T06:35:15;17.60;99.90
46898;DHT22;32646;50.958;6.258;2023-07-29T06:37:41;17.50;99.90
46898;DHT22;32646;50.958;6.258;2023-07-29T06:40:08;17.50;99.90
46898;DHT22;32646;50.958;6.258;2023-07-29T06:42:35;17.60;99.90
46898;DHT22;32646;50.958;6.258;2023-07-29T06:45:01;17.70;99.90
46898;DHT22;32646;50.958;6.258;2023-07-29T06:47:31;17.70;99.90
46898;DHT22;32646;50.958;6.258;2023-07-29T06:49:58;17.70;99.90
46898;DHT22;32646;50.958;6.258;2023-07-29T06:52:24;17.80;99.90
46898;DHT22;32646;50.958;6.258;2023-07-29T06:54:51;17.70;99.90
46898;DHT22;32646;50.958;6.258;2023-07-29T06:57:18;17.90;99.90
46898;DHT22;32646;50.958;6.258;2023-07-29T06:59:44;17.80;99.90
46898;DHT22;32646;50.958;6.258;2023-07-29T07:02:11;17.70;99.90
46898;DHT22;32646;50.958;6.258;2023-07-29T07:04:37;17.70;99.90
46898;DHT22;32646;50.958;6.258;2023-07-29T07:07:04;17.70;99.90
46898;DHT22;32646;50.958;6.258;2023-07-29T07:09:31;17.70;99.90
46898;DHT22;32646;50.958;6.258;2023-07-29T07:11:58;17.80;99.90
46898;DHT22;32646;50.958;6.258;2023-07-29T07:14:24;17.80;99.90
46898;DHT22;32646;50.958;6.258;2023-07-29T07:16:51;17.70;99.90
46898;DHT22;32646;50.958;6.258;2023-07-29T07:19:17;17.70;99.90
46898;DHT22;32646;50.958;6.258;2023-07-29T07:21:44;17.60;99.90
46898;DHT22;32646;50.958;6.258;2023-07-29T07:24:11;17.60;99.90
46898;DHT22;32646;50.958;6.258;2023-07-29T07:26:37;17.60;99.90
46898;DHT22;32646;50.958;6.258;2023-07-29T07:29:05;17.60;99.90
46898;DHT22;32646;50.958;6.258;2023-07-29T07:31:35;17.60;99.90
46898;DHT22;32646;50.958;6.258;2023-07-29T07:34:02;17.60;99.90
46898;DHT22;32646;50.958;6.258;2023-07-29T07:36:29;17.70;99.90
46898;DHT22;32646;50.958;6.258;2023-07-29T07:38:56;17.90;99.90
46898;DHT22;32646;50.958;6.258;2023-07-29T07:41:23;18.00;99.90
46898;DHT22;32646;50.958;6.258;2023-07-29T07:43:55;18.00;99.90
46898;DHT22;32646;50.958;6.258;2023-07-29T07:46:22;17.90;99.90
46898;DHT22;32646;50.958;6.258;2023-07-29T07:48:48;18.20;99.90
46898;DHT22;32646;50.958;6.258;2023-07-29T07:51:15;18.40;99.90
46898;DHT22;32646;50.958;6.258;2023-07-29T07:53:41;18.50;99.90
46898;DHT22;32646;50.958;6.258;2023-07-29T07:56:08;18.30;99.90
46898;DHT22;32646;50.958;6.258;2023-07-29T07:58:35;18.30;99.90
46898;DHT22;32646;50.958;6.258;2023-07-29T08:01:06;18.60;99.90
46898;DHT22;32646;50.958;6.258;2023-07-29T08:03:33;18.70;99.90
46898;DHT22;32646;50.958;6.258;2023-07-29T08:06:00;18.80;99.90
46898;DHT22;32646;50.958;6.258;2023-07-29T08:08:27;19.30;99.90
46898;DHT22;32646;50.958;6.258;2023-07-29T08:10:55;19.70;99.90
46898;DHT22;32646;50.958;6.258;2023-07-29T08:13:25;20.10;99.90
46898;DHT22;32646;50.958;6.258;2023-07-29T08:15:52;20.30;99.90
46898;DHT22;32646;50.958;6.258;2023-07-29T08:18:19;20.30;99.90
46898;DHT22;32646;50.958;6.258;2023-07-29T08:20:56;20.20;99.90
46898;DHT22;32646;50.958;6.258;2023-07-29T08:23:25;20.30;99.90
46898;DHT22;32646;50.958;6.258;2023-07-29T08:25:59;20.40;99.90
46898;DHT22;32646;50.958;6.258;2023-07-29T08:28:34;20.40;99.90
46898;DHT22;32646;50.958;6.258;2023-07-29T08:31:01;20.50;99.90
46898;DHT22;32646;50.958;6.258;2023-07-29T08:33:28;20.40;99.90
46898;DHT22;32646;50.958;6.258;2023-07-29T08:35:55;20.50;99.90
46898;DHT22;32646;50.958;6.258;2023-07-29T08:38:22;20.80;99.90
46898;DHT22;32646;50.958;6.258;2023-07-29T08:41:05;21.30;99.90
46898;DHT22;32646;50.958;6.258;2023-07-29T08:43:33;21.80;99.90
46898;DHT22;32646;50.958;6.258;2023-07-29T08:46:01;21.60;99.90
46898;DHT22;32646;50.958;6.258;2023-07-29T08:48:40;21.90;99.90
46898;DHT22;32646;50.958;6.258;2023-07-29T08:51:08;22.30;99.90
46898;DHT22;32646;50.958;6.258;2023-07-29T08:53:36;22.50;99.50
46898;DHT22;32646;50.958;6.258;2023-07-29T08:56:04;22.20;98.30
46898;DHT22;32646;50.958;6.258;2023-07-29T08:58:31;21.90;98.40
46898;DHT22;32646;50.958;6.258;2023-07-29T09:00:59;21.40;99.90
46898;DHT22;32646;50.958;6.258;2023-07-29T09:03:25;21.10;99.90
46898;DHT22;32646;50.958;6.258;2023-07-29T09:05:54;21.00;99.90
46898;DHT22;32646;50.958;6.258;2023-07-29T09:08:22;20.90;99.90
46898;DHT22;32646;50.958;6.258;2023-07-29T09:10:49;20.70;99.90
46898;DHT22;32646;50.958;6.258;2023-07-29T09:13:15;20.60;99.90
46898;DHT22;32646;50.958;6.258;2023-07-29T09:15:42;20.60;99.90
46898;DHT22;32646;50.958;6.258;2023-07-29T09:18:17;20.40;99.90
46898;DHT22;32646;50.958;6.258;2023-07-29T09:20:48;20.20;99.90
46898;DHT22;32646;50.958;6.258;2023-07-29T09:23:15;20.30;99.90
46898;DHT22;32646;50.958;6.258;2023-07-29T09:25:43;20.40;99.90
46898;DHT22;32646;50.958;6.258;2023-07-29T09:28:12;20.60;99.90
46898;DHT22;32646;50.958;6.258;2023-07-29T09:30:44;20.90;99.90
46898;DHT22;32646;50.958;6.258;2023-07-29T09:33:10;21.10;99.90
46898;DHT22;32646;50.958;6.258;2023-07-29T09:35:38;20.90;99.90
46898;DHT22;32646;50.958;6.258;2023-07-29T09:38:05;20.70;99.90
46898;DHT22;32646;50.958;6.258;2023-07-29T09:40:36;20.80;99.90
46898;DHT22;32646;50.958;6.258;2023-07-29T09:43:04;20.50;99.90
46898;DHT22;32646;50.958;6.258;2023-07-29T09:45:36;20.40;99.90
46898;DHT22;32646;50.958;6.258;2023-07-29T09:48:04;20.40;99.90
46898;DHT22;32646;50.958;6.258;2023-07-29T09:50:32;20.20;99.90
46898;DHT22;32646;50.958;6.258;2023-07-29T09:52:59;20.10;99.90
46898;DHT22;32646;50.958;6.258;2023-07-29T09:55:26;20.20;99.90
46898;DHT22;32646;50.958;6.258;2023-07-29T09:57:56;20.20;99.90
46898;DHT22;32646;50.958;6.258;2023-07-29T10:00:23;20.20;99.90
46898;DHT22;32646;50.958;6.258;2023-07-29T10:02:50;20.40;99.90
46898;DHT22;32646;50.958;6.258;2023-07-29T10:05:18;20.40;99.90
46898;DHT22;32646;50.958;6.258;2023-07-29T10:07:45;20.50;99.90
46898;DHT22;32646;50.958;6.258;2023-07-29T10:10:13;20.60;99.90
46898;DHT22;32646;50.958;6.258;2023-07-29T10:12:40;20.70;99.90
46898;DHT22;32646;50.958;6.258;2023-07-29T10:15:06;21.10;99.90
46898;DHT22;32646;50.958;6.258;2023-07-29T10:17:38;21.30;99.90
46898;DHT22;32646;50.958;6.258;2023-07-29T10:20:07;21.20;99.90
46898;DHT22;32646;50.958;6.258;2023-07-29T10:22:42;21.90;99.90
46898;DHT22;32646;50.958;6.258;2023-07-29T10:25:21;22.60;99.20
46898;DHT22;32646;50.958;6.258;2023-07-29T10:27:49;23.10;95.10
46898;DHT22;32646;50.958;6.258;2023-07-29T10:30:18;23.40;97.60
46898;DHT22;32646;50.958;6.258;2023-07-29T10:32:49;23.10;93.40
46898;DHT22;32646;50.958;6.258;2023-07-29T10:35:16;22.90;94.00
46898;DHT22;32646;50.958;6.258;2023-07-29T10:37:43;22.90;92.20
46898;DHT22;32646;50.958;6.258;2023-07-29T10:40:10;22.30;93.90
46898;DHT22;32646;50.958;6.258;2023-07-29T10:42:38;22.50;98.40
46898;DHT22;32646;50.958;6.258;2023-07-29T10:45:20;22.00;94.70
46898;DHT22;32646;50.958;6.258;2023-07-29T10:47:47;21.80;97.30
46898;DHT22;32646;50.958;6.258;2023-07-29T10:50:19;21.50;94.80
46898;DHT22;32646;50.958;6.258;2023-07-29T10:52:52;21.70;95.20
46898;DHT22;32646;50.958;6.258;2023-07-29T10:55:35;22.10;95.10
46898;DHT22;32646;50.958;6.258;2023-07-29T11:00:35;22.60;92.40
46898;DHT22;32646;50.958;6.258;2023-07-29T11:03:05;23.20;94.80
46898;DHT22;32646;50.958;6.258;2023-07-29T11:08:30;22.80;91.30
46898;DHT22;32646;50.958;6.258;2023-07-29T11:11:07;22.40;94.10
46898;DHT22;32646;50.958;6.258;2023-07-29T11:13:36;22.30;95.80
46898;DHT22;32646;50.958;6.258;2023-07-29T11:16:03;22.90;97.50
46898;DHT22;32646;50.958;6.258;2023-07-29T11:18:32;23.10;90.20
46898;DHT22;32646;50.958;6.258;2023-07-29T11:21:00;23.00;91.80
46898;DHT22;32646;50.958;6.258;2023-07-29T11:23:29;23.40;89.90
46898;DHT22;32646;50.958;6.258;2023-07-29T11:25:57;23.10;91.00
46898;DHT22;32646;50.958;6.258;2023-07-29T11:28:24;23.00;90.20
46898;DHT22;32646;50.958;6.258;2023-07-29T11:30:51;23.20;91.70
46898;DHT22;32646;50.958;6.258;2023-07-29T11:33:20;23.10;92.80
46898;DHT22;32646;50.958;6.258;2023-07-29T11:35:49;23.10;90.70
46898;DHT22;32646;50.958;6.258;2023-07-29T11:38:18;23.20;93.70
46898;DHT22;32646;50.958;6.258;2023-07-29T11:40:54;24.20;93.50
46898;DHT22;32646;50.958;6.258;2023-07-29T11:43:21;24.40;90.20
46898;DHT22;32646;50.958;6.258;2023-07-29T11:45:48;24.10;90.30
46898;DHT22;32646;50.958;6.258;2023-07-29T11:48:18;24.70;87.10
46898;DHT22;32646;50.958;6.258;2023-07-29T11:50:45;24.60;83.80
46898;DHT22;32646;50.958;6.258;2023-07-29T11:53:12;24.40;90.30
46898;DHT22;32646;50.958;6.258;2023-07-29T11:55:42;24.60;90.90
46898;DHT22;32646;50.958;6.258;2023-07-29T11:58:09;24.80;83.90
46898;DHT22;32646;50.958;6.258;2023-07-29T12:00:37;25.30;87.60
46898;DHT22;32646;50.958;6.258;2023-07-29T12:03:04;24.80;81.80
46898;DHT22;32646;50.958;6.258;2023-07-29T12:05:31;25.20;82.60
46898;DHT22;32646;50.958;6.258;2023-07-29T12:07:58;25.70;74.50
46898;DHT22;32646;50.958;6.258;2023-07-29T12:10:25;25.90;75.20
46898;DHT22;32646;50.958;6.258;2023-07-29T12:12:52;25.40;77.50
46898;DHT22;32646;50.958;6.258;2023-07-29T12:15:23;24.70;76.30
46898;DHT22;32646;50.958;6.258;2023-07-29T12:17:53;23.80;81.70
46898;DHT22;32646;50.958;6.258;2023-07-29T12:20:20;23.40;84.10
46898;DHT22;32646;50.958;6.258;2023-07-29T12:22:55;23.30;85.10
46898;DHT22;32646;50.958;6.258;2023-07-29T12:25:22;23.20;88.80
46898;DHT22;32646;50.958;6.258;2023-07-29T12:27:48;23.10;88.70
46898;DHT22;32646;50.958;6.258;2023-07-29T12:30:15;22.90;92.20
46898;DHT22;32646;50.958;6.258;2023-07-29T12:32:46;22.80;92.60
46898;DHT22;32646;50.958;6.258;2023-07-29T12:35:13;22.80;90.70
46898;DHT22;32646;50.958;6.258;2023-07-29T12:37:39;22.80;91.40
46898;DHT22;32646;50.958;6.258;2023-07-29T12:40:06;22.80;94.30
46898;DHT22;32646;50.958;6.258;2023-07-29T12:42:33;22.70;93.20
46898;DHT22;32646;50.958;6.258;2023-07-29T12:45:00;22.50;98.60
46898;DHT22;32646;50.958;6.258;2023-07-29T12:47:26;22.00;99.90
46898;DHT22;32646;50.958;6.258;2023-07-29T12:49:53;21.50;99.90
46898;DHT22;32646;50.958;6.258;2023-07-29T12:52:20;21.20;99.90
46898;DHT22;32646;50.958;6.258;2023-07-29T12:54:46;21.10;99.90
46898;DHT22;32646;50.958;6.258;2023-07-29T12:57:13;21.20;99.90
46898;DHT22;32646;50.958;6.258;2023-07-29T12:59:40;21.30;99.90
46898;DHT22;32646;50.958;6.258;2023-07-29T13:02:06;21.30;99.90
46898;DHT22;32646;50.958;6.258;2023-07-29T13:04:33;21.30;99.90
46898;DHT22;32646;50.958;6.258;2023-07-29T13:07:00;21.30;99.90
46898;DHT22;32646;50.958;6.258;2023-07-29T13:09:26;21.30;99.90
46898;DHT22;32646;50.958;6.258;2023-07-29T13:11:53;21.20;99.90
46898;DHT22;32646;50.958;6.258;2023-07-29T13:14:20;21.10;99.90
46898;DHT22;32646;50.958;6.258;2023-07-29T13:16:46;21.00;99.90
46898;DHT22;32646;50.958;6.258;2023-07-29T13:19:13;20.80;99.90
46898;DHT22;32646;50.958;6.258;2023-07-29T13:21:39;20.80;99.90
46898;DHT22;32646;50.958;6.258;2023-07-29T13:24:06;20.60;99.90
46898;DHT22;32646;50.958;6.258;2023-07-29T13:26:32;20.40;99.90
46898;DHT22;32646;50.958;6.258;2023-07-29T13:28:59;20.10;99.90
46898;DHT22;32646;50.958;6.258;2023-07-29T13:31:26;19.90;99.90
46898;DHT22;32646;50.958;6.258;2023-07-29T13:33:53;19.90;99.90
46898;DHT22;32646;50.958;6.258;2023-07-29T13:36:19;19.80;99.90
46898;DHT22;32646;50.958;6.258;2023-07-29T13:38:46;19.90;99.90
46898;DHT22;32646;50.958;6.258;2023-07-29T13:41:12;20.00;99.90
46898;DHT22;32646;50.958;6.258;2023-07-29T13:43:39;20.20;99.90
46898;DHT22;32646;50.958;6.258;2023-07-29T13:46:06;20.30;99.90
46898;DHT22;32646;50.958;6.258;2023-07-29T13:48:32;20.60;99.90
46898;DHT22;32646;50.958;6.258;2023-07-29T13:50:59;20.70;99.90
46898;DHT22;32646;50.958;6.258;2023-07-29T13:53:25;20.80;99.90
46898;DHT22;32646;50.958;6.258;2023-07-29T13:55:52;20.70;99.90
46898;DHT22;32646;50.958;6.258;2023-07-29T13:58:19;20.70;99.90
46898;DHT22;32646;50.958;6.258;2023-07-29T14:00:45;20.70;99.90
46898;DHT22;32646;50.958;6.258;2023-07-29T14:03:12;20.90;99.90
46898;DHT22;32646;50.958;6.258;2023-07-29T14:05:38;20.90;99.90
46898;DHT22;32646;50.958;6.258;2023-07-29T14:08:05;20.70;99.90
46898;DHT22;32646;50.958;6.258;2023-07-29T14:10:31;20.60;99.90
46898;DHT22;32646;50.958;6.258;2023-07-29T14:12:58;20.60;99.90
46898;DHT22;32646;50.958;6.258;2023-07-29T14:15:25;20.50;99.90
46898;DHT22;32646;50.958;6.258;2023-07-29T14:17:51;20.40;99.90
46898;DHT22;32646;50.958;6.258;2023-07-29T14:20:18;20.60;99.90
46898;DHT22;32646;50.958;6.258;2023-07-29T14:22:47;21.00;99.90
46898;DHT22;32646;50.958;6.258;2023-07-29T14:25:14;21.30;99.90
46898;DHT22;32646;50.958;6.258;2023-07-29T14:27:41;21.20;99.90
46898;DHT22;32646;50.958;6.258;2023-07-29T14:30:08;21.00;99.90
46898;DHT22;32646;50.958;6.258;2023-07-29T14:32:34;20.90;99.90
46898;DHT22;32646;50.958;6.258;2023-07-29T14:35:01;21.10;99.90
46898;DHT22;32646;50.958;6.258;2023-07-29T14:37:27;21.00;99.90
46898;DHT22;32646;50.958;6.258;2023-07-29T14:39:54;21.20;99.90
46898;DHT22;32646;50.958;6.258;2023-07-29T14:42:21;21.40;99.90
46898;DHT22;32646;50.958;6.258;2023-07-29T14:44:47;21.40;99.90
46898;DHT22;32646;50.958;6.258;2023-07-29T14:47:14;21.60;99.90
46898;DHT22;32646;50.958;6.258;2023-07-29T14:49:40;22.10;99.90
46898;DHT22;32646;50.958;6.258;2023-07-29T14:52:07;22.20;99.90
46898;DHT22;32646;50.958;6.258;2023-07-29T14:54:34;21.80;99.90
46898;DHT22;32646;50.958;6.258;2023-07-29T14:57:00;21.80;99.90
46898;DHT22;32646;50.958;6.258;2023-07-29T14:59:27;22.00;99.90
46898;DHT22;32646;50.958;6.258;2023-07-29T15:01:53;22.60;99.90
46898;DHT22;32646;50.958;6.258;2023-07-29T15:04:20;23.40;99.90
46898;DHT22;32646;50.958;6.258;2023-07-29T15:06:46;23.70;99.90
46898;DHT22;32646;50.958;6.258;2023-07-29T15:09:13;24.00;99.90
46898;DHT22;32646;50.958;6.258;2023-07-29T15:11:40;24.30;94.60
46898;DHT22;32646;50.958;6.258;2023-07-29T15:14:07;24.40;96.70
46898;DHT22;32646;50.958;6.258;2023-07-29T15:16:34;24.20;94.40
46898;DHT22;32646;50.958;6.258;2023-07-29T15:19:04;23.70;97.50
46898;DHT22;32646;50.958;6.258;2023-07-29T15:21:31;23.40;99.90
46898;DHT22;32646;50.958;6.258;2023-07-29T15:23:57;23.20;99.50
46898;DHT22;32646;50.958;6.258;2023-07-29T15:26:24;22.80;99.90
46898;DHT22;32646;50.958;6.258;2023-07-29T15:28:51;22.70;99.90
46898;DHT22;32646;50.958;6.258;2023-07-29T15:31:17;22.40;99.90
46898;DHT22;32646;50.958;6.258;2023-07-29T15:33:44;22.30;99.90
46898;DHT22;32646;50.958;6.258;2023-07-29T15:36:10;22.60;99.90
46898;DHT22;32646;50.958;6.258;2023-07-29T15:38:37;22.90;99.90
46898;DHT22;32646;50.958;6.258;2023-07-29T15:41:03;22.60;99.90
46898;DHT22;32646;50.958;6.258;2023-07-29T15:43:30;22.40;99.90